createdAt,value
2019-02-24T00:00:09.033Z,40.70
2019-02-24T00:02:38.074Z,40.40
2019-02-24T00:05:08.366Z,39.70
2019-02-24T00:07:37.364Z,38.90
2019-02-24T00:10:06.374Z,36.90
2019-02-24T00:12:35.459Z,35.90
2019-02-24T00:15:04.863Z,36.30
2019-02-24T00:17:33.836Z,33.70
2019-02-24T00:22:31.669Z,33.20
2019-02-24T00:25:00.624Z,32.40
2019-02-24T00:27:29.796Z,33.10
2019-02-24T00:29:58.817Z,34.70
2019-02-24T00:32:27.916Z,34.80
2019-02-24T00:34:56.957Z,34.30
2019-02-24T00:39:54.456Z,37.20
2019-02-24T00:42:23.421Z,38.40
2019-02-24T00:44:52.391Z,39.60
2019-02-24T00:47:21.542Z,40.80
2019-02-24T00:49:50.429Z,39.80
2019-02-24T00:52:19.343Z,41.40
2019-02-24T00:54:48.267Z,40.30
2019-02-24T00:57:17.377Z,41.50
2019-02-24T00:59:46.342Z,38.80
2019-02-24T01:02:15.447Z,37.50
2019-02-24T01:04:44.480Z,37.30
2019-02-24T01:07:13.566Z,35.70
2019-02-24T01:09:42.594Z,34.80
2019-02-24T01:12:11.557Z,38.40
2019-02-24T01:14:40.720Z,39.30
2019-02-24T01:17:09.747Z,40.40
2019-02-24T01:19:38.946Z,40.20
2019-02-24T01:22:08.000Z,40.60
2019-02-24T01:27:05.711Z,42.70
2019-02-24T01:29:34.735Z,43.00
2019-02-24T01:32:03.689Z,43.30
2019-02-24T01:34:32.875Z,43.50
2019-02-24T01:37:01.861Z,45.00
2019-02-24T01:39:30.900Z,47.50
2019-02-24T01:41:59.929Z,48.00
2019-02-24T01:44:28.869Z,48.30
2019-02-24T01:46:57.844Z,47.70
2019-02-24T01:49:26.864Z,46.30
2019-02-24T01:51:55.818Z,45.70
2019-02-24T01:54:24.724Z,46.20
2019-02-24T01:56:53.608Z,49.60
2019-02-24T01:59:22.648Z,48.30
2019-02-24T02:01:51.650Z,50.70
2019-02-24T02:04:20.666Z,49.30
2019-02-24T02:06:49.806Z,50.00
2019-02-24T02:09:18.863Z,49.70
2019-02-24T02:11:47.923Z,50.90
2019-02-24T02:14:17.173Z,50.50
2019-02-24T02:16:46.145Z,51.20
2019-02-24T02:19:15.128Z,51.90
2019-02-24T02:21:44.307Z,54.70
2019-02-24T02:26:41.896Z,56.00
2019-02-24T02:29:10.805Z,56.00
2019-02-24T02:31:39.852Z,55.00
2019-02-24T02:34:08.869Z,55.30
2019-02-24T02:36:37.769Z,56.00
2019-02-24T02:39:06.777Z,56.90
2019-02-24T02:41:35.851Z,56.00
2019-02-24T02:44:04.817Z,55.30
2019-02-24T02:49:04.514Z,55.60
2019-02-24T02:51:33.337Z,54.40
2019-02-24T02:54:02.447Z,56.40
2019-02-24T02:56:31.420Z,54.70
2019-02-24T02:59:00.461Z,55.10
2019-02-24T03:01:29.502Z,54.70
2019-02-24T03:03:58.571Z,55.80
2019-02-24T03:06:36.389Z,55.10
2019-02-24T03:09:08.588Z,54.00
2019-02-24T03:11:37.624Z,55.90
2019-02-24T03:14:06.621Z,55.30
2019-02-24T03:16:35.714Z,56.50
2019-02-24T03:19:04.758Z,55.90
2019-02-24T03:21:33.720Z,55.20
2019-02-24T03:24:02.882Z,52.00
2019-02-24T03:26:32.010Z,49.90
2019-02-24T03:29:04.088Z,52.30
2019-02-24T03:31:31.729Z,52.10
2019-02-24T03:34:00.707Z,53.90
2019-02-24T03:36:29.680Z,53.20
2019-02-24T03:38:58.646Z,53.60
2019-02-24T03:43:56.292Z,56.00
2019-02-24T03:46:25.374Z,55.30
2019-02-24T03:48:54.322Z,56.70
2019-02-24T03:51:23.301Z,57.20
2019-02-24T03:53:52.298Z,56.90
2019-02-24T03:56:21.312Z,55.10
2019-02-24T03:58:50.219Z,57.60
2019-02-24T04:01:19.216Z,56.00
2019-02-24T04:03:48.296Z,56.70
2019-02-24T04:06:17.197Z,55.50
2019-02-24T04:13:43.314Z,58.40
2019-02-24T04:16:12.273Z,58.60
2019-02-24T04:18:41.188Z,59.90
2019-02-24T04:21:10.254Z,60.10
2019-02-24T04:23:39.396Z,60.60
2019-02-24T04:26:08.413Z,63.30
2019-02-24T04:28:37.488Z,63.60
2019-02-24T04:31:06.585Z,62.90
2019-02-24T04:33:35.540Z,62.70
2019-02-24T04:36:04.557Z,62.20
2019-02-24T04:38:33.509Z,60.00
2019-02-24T04:41:02.681Z,64.00
2019-02-24T04:43:31.641Z,65.10
2019-02-24T04:48:29.299Z,65.00
2019-02-24T04:50:58.275Z,64.90
2019-02-24T04:53:27.302Z,66.60
2019-02-24T04:55:56.369Z,68.30
2019-02-24T04:58:25.262Z,67.30
2019-02-24T05:00:54.185Z,69.90
2019-02-24T05:03:23.218Z,68.60
2019-02-24T05:05:52.219Z,69.70
2019-02-24T05:08:21.201Z,69.40
2019-02-24T05:13:18.904Z,72.20
2019-02-24T05:15:47.921Z,72.70
2019-02-24T05:20:45.386Z,71.30
2019-02-24T05:23:14.313Z,72.60
2019-02-24T05:25:43.512Z,71.00
2019-02-24T05:28:12.613Z,74.10
2019-02-24T05:30:41.584Z,69.40
2019-02-24T05:33:10.680Z,70.80
2019-02-24T05:35:39.641Z,70.60
2019-02-24T05:38:08.772Z,71.60
2019-02-24T05:40:37.800Z,73.90
2019-02-24T05:43:07.029Z,73.80
2019-02-24T05:45:35.969Z,73.70
2019-02-24T05:50:33.503Z,76.20
2019-02-24T05:53:02.609Z,72.00
2019-02-24T05:55:31.645Z,75.30
2019-02-24T05:58:00.701Z,73.70
2019-02-24T06:00:29.697Z,72.70
2019-02-24T06:02:58.777Z,77.60
2019-02-24T06:05:27.744Z,77.10
2019-02-24T06:07:56.886Z,79.60
2019-02-24T06:10:25.960Z,76.80
2019-02-24T06:12:54.991Z,76.50
2019-02-24T06:17:54.308Z,76.80
2019-02-24T06:20:23.433Z,81.30
2019-02-24T06:22:52.416Z,78.40
2019-02-24T06:25:21.472Z,80.00
2019-02-24T06:27:50.502Z,73.30
2019-02-24T06:30:19.400Z,72.60
2019-02-24T06:32:48.520Z,81.30
2019-02-24T06:35:17.501Z,78.80
2019-02-24T06:37:46.549Z,79.50
2019-02-24T06:40:15.485Z,77.30
2019-02-24T06:42:44.457Z,75.90
2019-02-24T06:45:13.496Z,72.60
2019-02-24T06:47:42.436Z,74.60
2019-02-24T06:50:11.400Z,65.60
2019-02-24T06:52:40.380Z,68.20
2019-02-24T06:55:09.568Z,72.30
2019-02-24T06:57:38.561Z,69.60
2019-02-24T07:02:38.120Z,64.40
2019-02-24T07:05:08.692Z,65.60
2019-02-24T07:07:37.649Z,63.40
2019-02-24T07:10:07.409Z,60.50
2019-02-24T07:12:36.477Z,61.30
2019-02-24T07:15:05.880Z,60.50
2019-02-24T07:17:34.956Z,57.40
2019-02-24T07:20:05.096Z,55.60
2019-02-24T07:22:34.164Z,57.70
2019-02-24T07:25:03.152Z,58.10
2019-02-24T07:27:32.261Z,57.10
2019-02-24T07:30:01.160Z,56.50
2019-02-24T07:32:30.105Z,54.30
2019-02-24T07:34:59.136Z,54.30
2019-02-24T07:37:28.069Z,57.10
2019-02-24T07:39:56.974Z,56.30
2019-02-24T07:44:54.456Z,58.70
2019-02-24T07:47:23.377Z,57.40
2019-02-24T07:49:52.281Z,57.00
2019-02-24T07:52:21.487Z,57.70
2019-02-24T07:54:50.540Z,55.50
2019-02-24T07:57:19.519Z,54.70
2019-02-24T08:04:45.753Z,54.60
2019-02-24T08:07:14.735Z,55.70
2019-02-24T08:09:43.713Z,56.40
2019-02-24T08:12:12.680Z,59.30
2019-02-24T08:14:41.624Z,59.50
2019-02-24T08:17:10.604Z,54.50
2019-02-24T08:19:39.752Z,58.90
2019-02-24T08:22:08.794Z,56.80
2019-02-24T08:24:37.880Z,55.70
2019-02-24T08:27:06.884Z,55.40
2019-02-24T08:29:35.868Z,56.90
2019-02-24T08:34:33.483Z,56.40
2019-02-24T08:37:02.539Z,56.70
2019-02-24T08:39:31.470Z,53.20
2019-02-24T08:44:29.013Z,54.60
2019-02-24T08:46:57.985Z,56.00
2019-02-24T08:54:24.033Z,54.10
2019-02-24T08:56:53.043Z,53.00
2019-02-24T08:59:22.132Z,54.50
2019-02-24T09:01:51.043Z,51.90
2019-02-24T09:04:20.089Z,52.50
2019-02-24T09:06:49.241Z,52.70
2019-02-24T09:09:18.344Z,53.60
2019-02-24T09:11:47.333Z,52.70
2019-02-24T09:14:17.958Z,53.60
2019-02-24T09:16:46.919Z,53.00
2019-02-24T09:26:41.805Z,50.90
2019-02-24T09:31:39.694Z,49.20
2019-02-24T09:34:08.828Z,47.30
2019-02-24T09:36:37.932Z,48.60
2019-02-24T09:39:07.023Z,44.70
2019-02-24T09:44:04.554Z,41.80
2019-02-24T09:46:33.600Z,41.40
2019-02-24T09:49:02.543Z,43.90
2019-02-24T09:51:31.509Z,39.80
2019-02-24T09:54:00.557Z,41.00
2019-02-24T09:56:29.609Z,38.50
2019-02-24T09:58:58.679Z,38.70
2019-02-24T10:03:56.171Z,35.80
2019-02-24T10:06:25.344Z,37.10
2019-02-24T10:08:54.395Z,34.50
2019-02-24T10:11:23.473Z,36.70
2019-02-24T10:13:52.476Z,34.80
2019-02-24T10:16:21.441Z,35.90
2019-02-24T10:18:50.673Z,36.50
2019-02-24T10:21:19.742Z,34.70
2019-02-24T10:23:48.820Z,36.10
2019-02-24T10:26:17.987Z,34.80
2019-02-24T10:28:47.737Z,34.40
2019-02-24T10:31:19.770Z,38.60
2019-02-24T10:38:45.944Z,34.90
2019-02-24T10:41:14.949Z,32.90
2019-02-24T10:43:44.012Z,32.00
2019-02-24T10:46:13.107Z,28.90
2019-02-24T10:48:41.993Z,31.70
2019-02-24T10:51:10.983Z,31.90
2019-02-24T10:53:40.073Z,29.90
2019-02-24T10:56:09.864Z,32.70
2019-02-24T10:58:39.491Z,33.30
2019-02-24T11:01:08.509Z,33.20
2019-02-24T11:06:06.029Z,33.90
2019-02-24T11:08:35.115Z,35.90
2019-02-24T11:11:04.172Z,38.30
2019-02-24T11:13:33.233Z,37.20
2019-02-24T11:16:02.331Z,37.20
2019-02-24T11:18:31.382Z,35.00
2019-02-24T11:21:00.395Z,36.30
2019-02-24T11:23:29.422Z,35.60
2019-02-24T11:28:27.026Z,32.70
2019-02-24T11:33:24.818Z,31.50
2019-02-24T11:35:53.897Z,35.00
2019-02-24T11:38:22.902Z,29.30
2019-02-24T11:40:51.972Z,32.00
2019-02-24T11:43:20.931Z,31.70
2019-02-24T11:45:50.057Z,29.00
2019-02-24T11:48:19.185Z,31.20
2019-02-24T11:50:48.198Z,33.70
2019-02-24T11:53:17.203Z,32.60
2019-02-24T11:55:46.295Z,30.00
2019-02-24T12:03:12.372Z,32.00
2019-02-24T12:05:41.340Z,30.10
2019-02-24T12:08:10.321Z,32.40
2019-02-24T12:10:39.428Z,30.20
2019-02-24T12:13:08.512Z,29.60
2019-02-24T12:18:06.157Z,30.00
2019-02-24T12:23:04.141Z,30.00
2019-02-24T12:25:33.138Z,32.10
2019-02-24T12:30:30.770Z,30.00
2019-02-24T12:32:59.729Z,31.20
2019-02-24T12:35:28.782Z,31.60
2019-02-24T12:37:57.860Z,30.90
2019-02-24T12:42:55.492Z,29.60
2019-02-24T12:45:25.269Z,29.50
2019-02-24T12:47:54.216Z,29.00
2019-02-24T12:52:52.364Z,28.70
2019-02-24T12:57:49.913Z,28.40
2019-02-24T13:00:19.773Z,30.50
2019-02-24T13:02:48.834Z,27.30
2019-02-24T13:05:17.922Z,28.70
2019-02-24T13:07:46.893Z,30.80
2019-02-24T13:10:16.004Z,31.50
2019-02-24T13:12:45.038Z,31.50
2019-02-24T13:15:14.956Z,31.80
2019-02-24T13:17:44.030Z,31.60
2019-02-24T13:20:13.219Z,31.90
2019-02-24T13:22:42.269Z,31.50
2019-02-24T13:25:11.423Z,31.80
2019-02-24T13:27:40.498Z,31.10
2019-02-24T13:32:38.543Z,30.90
2019-02-24T13:35:07.684Z,30.40
2019-02-24T13:37:36.588Z,31.20
2019-02-24T13:40:07.845Z,31.30
2019-02-24T13:42:36.892Z,31.10
2019-02-24T13:47:35.248Z,32.10
2019-02-24T13:50:06.440Z,30.90
2019-02-24T13:52:35.474Z,30.70
2019-02-24T13:55:04.688Z,30.10
2019-02-24T13:57:33.628Z,30.90
2019-02-24T14:00:02.796Z,31.40
2019-02-24T14:02:31.865Z,29.90
2019-02-24T14:05:00.960Z,29.60
2019-02-24T14:07:30.141Z,29.30
2019-02-24T14:09:59.309Z,30.10
2019-02-24T14:12:28.276Z,30.30
2019-02-24T14:14:57.274Z,31.00
2019-02-24T14:17:26.366Z,30.00
2019-02-24T14:19:55.397Z,29.80
2019-02-24T14:22:24.449Z,30.60
2019-02-24T14:24:53.528Z,30.00
2019-02-24T14:27:22.530Z,32.00
2019-02-24T14:29:51.685Z,29.60
2019-02-24T14:32:20.665Z,30.40
2019-02-24T14:34:50.028Z,29.70
2019-02-24T14:37:19.100Z,28.10
2019-02-24T14:39:48.121Z,29.60
2019-02-24T14:44:45.789Z,28.60
2019-02-24T14:47:15.102Z,28.20
2019-02-24T14:52:12.769Z,26.30
2019-02-24T14:54:41.823Z,26.50
2019-02-24T14:57:10.984Z,26.40
2019-02-24T14:59:40.049Z,26.50
2019-02-24T15:02:09.146Z,27.20
2019-02-24T15:09:37.162Z,28.50
2019-02-24T15:12:06.180Z,28.40
2019-02-24T15:14:35.192Z,28.50
2019-02-24T15:19:32.772Z,28.30
2019-02-24T15:22:01.862Z,29.60
2019-02-24T15:26:59.513Z,31.70
2019-02-24T15:29:28.538Z,31.70
2019-02-24T15:31:57.602Z,31.70
2019-02-24T15:34:26.786Z,32.30
2019-02-24T15:36:56.172Z,32.50
2019-02-24T15:39:25.272Z,32.70
2019-02-24T15:41:54.302Z,32.10
2019-02-24T15:44:23.743Z,32.20
2019-02-24T15:46:52.804Z,32.50
2019-02-24T15:49:21.830Z,32.90
2019-02-24T15:51:50.932Z,33.00
2019-02-24T15:54:20.034Z,33.20
2019-02-24T15:59:18.992Z,33.00
2019-02-24T16:01:48.076Z,33.70
2019-02-24T16:04:17.168Z,33.30
2019-02-24T16:06:46.189Z,33.40
2019-02-24T16:09:15.300Z,33.50
2019-02-24T16:11:44.389Z,33.50
2019-02-24T16:14:13.365Z,34.60
2019-02-24T16:21:39.452Z,34.00
2019-02-24T16:24:08.733Z,34.30
2019-02-24T16:26:37.721Z,34.40
2019-02-24T16:29:06.763Z,35.10
2019-02-24T16:31:35.771Z,35.80
2019-02-24T16:34:04.843Z,36.60
2019-02-24T16:36:33.960Z,37.10
2019-02-24T16:39:03.685Z,37.50
2019-02-24T16:41:32.664Z,37.80
2019-02-24T16:46:30.186Z,39.80
2019-02-24T16:48:59.199Z,39.20
2019-02-24T16:53:56.821Z,41.00
2019-02-24T16:56:25.866Z,42.00
2019-02-24T16:58:55.099Z,41.60
2019-02-24T17:01:24.146Z,41.90
2019-02-24T17:03:53.332Z,39.20
2019-02-24T17:06:22.408Z,36.90
2019-02-24T17:08:52.200Z,34.40
2019-02-24T17:11:22.365Z,33.10
2019-02-24T17:13:51.466Z,30.70
2019-02-24T17:16:20.572Z,30.00
2019-02-24T17:18:49.669Z,29.40
2019-02-24T17:23:49.890Z,29.30
2019-02-24T17:26:18.098Z,29.00
2019-02-24T17:28:48.156Z,28.70
2019-02-24T17:33:45.976Z,28.90
2019-02-24T17:36:15.101Z,30.00
2019-02-24T17:38:44.181Z,29.40
2019-02-24T17:41:13.166Z,29.00
2019-02-24T17:43:42.325Z,29.30
2019-02-24T17:46:11.415Z,29.20
2019-02-24T17:48:40.397Z,29.30
2019-02-24T17:53:38.069Z,29.10
2019-02-24T17:56:07.239Z,29.60
2019-02-24T17:58:36.275Z,29.60
2019-02-24T18:01:05.909Z,29.50
2019-02-24T18:03:39.473Z,29.60
2019-02-24T18:06:05.884Z,29.60
2019-02-24T18:08:34.869Z,29.30
2019-02-24T18:13:32.522Z,29.40
2019-02-24T18:18:30.110Z,29.60
2019-02-24T18:20:59.248Z,29.80
2019-02-24T18:23:28.643Z,29.80
2019-02-24T18:25:58.821Z,29.80
2019-02-24T18:30:56.456Z,30.10
2019-02-24T18:33:25.569Z,30.60
2019-02-24T18:38:23.267Z,30.10
2019-02-24T18:40:52.514Z,30.40
2019-02-24T18:45:50.198Z,29.50
2019-02-24T18:48:19.182Z,29.90
2019-02-24T18:50:48.173Z,30.90
2019-02-24T18:53:17.287Z,30.30
2019-02-24T18:55:46.674Z,30.20
2019-02-24T18:58:15.961Z,30.30
2019-02-24T19:00:45.021Z,29.30
2019-02-24T19:03:14.044Z,29.20
2019-02-24T19:05:43.173Z,29.50
2019-02-24T19:08:12.229Z,29.40
2019-02-24T19:10:41.306Z,28.00
2019-02-24T19:13:10.477Z,27.50
2019-02-24T19:15:39.881Z,27.50
2019-02-24T19:20:37.505Z,29.50
2019-02-24T19:25:35.336Z,27.20
2019-02-24T19:28:04.525Z,28.30
2019-02-24T19:30:33.583Z,29.30
2019-02-24T19:33:03.669Z,29.00
2019-02-24T19:35:32.780Z,29.10
2019-02-24T19:38:01.826Z,30.40
2019-02-24T19:40:30.857Z,27.00
2019-02-24T19:43:00.079Z,25.40
2019-02-24T19:50:26.720Z,25.00
2019-02-24T19:52:56.846Z,24.70
2019-02-24T19:57:56.251Z,24.70
2019-02-24T20:02:54.832Z,24.90
2019-02-24T20:05:23.912Z,25.20
2019-02-24T20:07:53.039Z,26.10
2019-02-24T20:10:22.238Z,27.30
2019-02-24T20:12:51.356Z,28.00
2019-02-24T20:15:20.528Z,28.80
2019-02-24T20:17:49.657Z,29.20
2019-02-24T20:22:47.418Z,30.00
2019-02-24T20:25:16.819Z,30.20
2019-02-24T20:30:17.593Z,28.10
2019-02-24T20:32:46.726Z,29.30
2019-02-24T20:35:15.772Z,29.90
2019-02-24T20:37:44.925Z,28.70
2019-02-24T20:42:46.149Z,30.90
2019-02-24T20:47:44.705Z,28.80
2019-02-24T20:50:15.253Z,28.80
2019-02-24T20:52:44.357Z,28.20
2019-02-24T20:57:42.064Z,28.10
2019-02-24T21:00:17.530Z,28.20
2019-02-24T21:02:46.613Z,28.30
2019-02-24T21:05:15.553Z,28.70
2019-02-24T21:07:44.700Z,28.70
2019-02-24T21:10:13.709Z,29.60
2019-02-24T21:12:42.785Z,31.90
2019-02-24T21:15:12.380Z,32.20
2019-02-24T21:17:41.492Z,32.80
2019-02-24T21:20:13.426Z,32.80
2019-02-24T21:22:42.701Z,32.40
2019-02-24T21:27:40.433Z,32.00
2019-02-24T21:30:10.904Z,32.50
2019-02-24T21:32:40.331Z,34.70
2019-02-24T21:35:11.331Z,35.20
2019-02-24T21:37:40.492Z,36.60
2019-02-24T21:40:10.196Z,36.40
2019-02-24T21:42:39.651Z,36.40
2019-02-24T21:45:11.168Z,36.70
2019-02-24T21:47:40.290Z,36.60
2019-02-24T21:50:10.312Z,38.30
2019-02-24T21:52:39.470Z,38.00
2019-02-24T21:55:08.697Z,38.20
2019-02-24T22:00:10.713Z,37.40
2019-02-24T22:02:39.672Z,38.60
2019-02-24T22:07:37.621Z,39.00
2019-02-24T22:10:07.256Z,40.30
2019-02-24T22:12:36.365Z,40.20
2019-02-24T22:15:06.427Z,41.40
2019-02-24T22:17:35.350Z,41.60
2019-02-24T22:20:05.021Z,42.10
2019-02-24T22:22:34.074Z,43.30
2019-02-24T22:25:03.361Z,45.10
2019-02-24T22:27:32.400Z,44.00
2019-02-24T22:30:01.487Z,44.30
2019-02-24T22:32:30.555Z,44.60
2019-02-24T22:34:59.526Z,44.80
2019-02-24T22:37:28.556Z,45.60
2019-02-24T22:42:26.069Z,46.30
2019-02-24T22:44:55.977Z,47.20
2019-02-24T22:47:25.078Z,47.10
2019-02-24T22:49:54.048Z,50.70
2019-02-24T22:52:23.073Z,47.60
2019-02-24T22:54:52.106Z,49.30
2019-02-24T22:57:21.162Z,48.70
2019-02-24T23:02:19.145Z,49.50
2019-02-24T23:04:48.241Z,50.40
2019-02-24T23:07:17.307Z,50.90
2019-02-24T23:09:46.439Z,53.50
2019-02-24T23:12:15.406Z,51.70
2019-02-24T23:14:44.773Z,53.20
2019-02-24T23:17:13.842Z,53.00
2019-02-24T23:19:43.018Z,52.80
2019-02-24T23:22:12.099Z,53.60
2019-02-24T23:24:41.153Z,54.50
2019-02-24T23:27:10.233Z,56.90
2019-02-24T23:32:07.834Z,55.60
2019-02-24T23:34:36.842Z,58.90
2019-02-24T23:37:05.918Z,59.30
2019-02-24T23:39:34.922Z,59.80
2019-02-24T23:42:04.065Z,59.40
2019-02-24T23:44:33.124Z,58.70
2019-02-24T23:49:32.540Z,57.60
2019-02-24T23:52:01.565Z,56.80
2019-02-24T23:54:30.615Z,56.80
2019-02-24T23:56:59.579Z,59.60
2019-02-24T23:59:28.625Z,54.50
